sensor_id;sensor_type;location;lat;lon;timestamp;temperature;humidity
20534;DHT22;12929;56.822;26.056;2022-07-23T00:01:46;19.50;99.90
20534;DHT22;12929;56.822;26.056;2022-07-23T00:04:14;19.50;99.90
20534;DHT22;12929;56.822;26.056;2022-07-23T00:06:42;19.40;99.90
20534;DHT22;12929;56.822;26.056;2022-07-23T00:09:10;19.50;99.90
20534;DHT22;12929;56.822;26.056;2022-07-23T00:11:37;19.50;99.90
20534;DHT22;12929;56.822;26.056;2022-07-23T00:14:05;19.40;99.90
20534;DHT22;12929;56.822;26.056;2022-07-23T00:16:33;19.40;99.90
20534;DHT22;12929;56.822;26.056;2022-07-23T00:19:01;19.30;99.90
20534;DHT22;12929;56.822;26.056;2022-07-23T00:21:30;19.30;99.90
20534;DHT22;12929;56.822;26.056;2022-07-23T00:23:58;19.30;99.90
20534;DHT22;12929;56.822;26.056;2022-07-23T00:26:25;19.30;99.90
20534;DHT22;12929;56.822;26.056;2022-07-23T00:28:53;19.30;99.90
20534;DHT22;12929;56.822;26.056;2022-07-23T00:31:20;19.30;99.90
20534;DHT22;12929;56.822;26.056;2022-07-23T00:33:48;19.30;99.90
20534;DHT22;12929;56.822;26.056;2022-07-23T00:36:16;19.40;99.90
20534;DHT22;12929;56.822;26.056;2022-07-23T00:38:43;19.30;99.90
20534;DHT22;12929;56.822;26.056;2022-07-23T00:41:11;19.30;99.90
20534;DHT22;12929;56.822;26.056;2022-07-23T00:43:39;19.20;99.90
20534;DHT22;12929;56.822;26.056;2022-07-23T00:46:06;19.20;99.90
20534;DHT22;12929;56.822;26.056;2022-07-23T00:48:34;19.20;99.90
20534;DHT22;12929;56.822;26.056;2022-07-23T00:51:02;19.20;99.90
20534;DHT22;12929;56.822;26.056;2022-07-23T00:53:30;19.20;99.90
20534;DHT22;12929;56.822;26.056;2022-07-23T00:55:58;19.20;99.90
20534;DHT22;12929;56.822;26.056;2022-07-23T00:58:26;19.20;99.90
20534;DHT22;12929;56.822;26.056;2022-07-23T01:00:54;19.10;99.90
20534;DHT22;12929;56.822;26.056;2022-07-23T01:03:22;19.10;99.90
20534;DHT22;12929;56.822;26.056;2022-07-23T01:05:50;19.20;99.90
20534;DHT22;12929;56.822;26.056;2022-07-23T01:08:18;19.20;99.90
20534;DHT22;12929;56.822;26.056;2022-07-23T01:10:49;19.10;99.90
20534;DHT22;12929;56.822;26.056;2022-07-23T01:13:18;19.00;99.90
20534;DHT22;12929;56.822;26.056;2022-07-23T01:15:46;19.00;99.90
20534;DHT22;12929;56.822;26.056;2022-07-23T01:18:14;19.00;99.90
20534;DHT22;12929;56.822;26.056;2022-07-23T01:20:41;19.00;99.90
20534;DHT22;12929;56.822;26.056;2022-07-23T01:23:10;18.90;99.90
20534;DHT22;12929;56.822;26.056;2022-07-23T01:25:52;18.90;99.90
20534;DHT22;12929;56.822;26.056;2022-07-23T01:28:21;18.80;99.90
20534;DHT22;12929;56.822;26.056;2022-07-23T01:30:49;18.80;99.90
20534;DHT22;12929;56.822;26.056;2022-07-23T01:33:17;18.70;99.90
20534;DHT22;12929;56.822;26.056;2022-07-23T01:35:45;18.70;99.90
20534;DHT22;12929;56.822;26.056;2022-07-23T01:38:18;18.80;99.90
20534;DHT22;12929;56.822;26.056;2022-07-23T01:40:46;18.80;99.90
20534;DHT22;12929;56.822;26.056;2022-07-23T01:43:21;18.80;99.90
20534;DHT22;12929;56.822;26.056;2022-07-23T01:45:52;18.70;99.90
20534;DHT22;12929;56.822;26.056;2022-07-23T01:48:21;18.60;99.90
20534;DHT22;12929;56.822;26.056;2022-07-23T01:51:07;18.60;99.90
20534;DHT22;12929;56.822;26.056;2022-07-23T01:53:42;18.50;99.90
20534;DHT22;12929;56.822;26.056;2022-07-23T01:56:09;18.50;99.90
20534;DHT22;12929;56.822;26.056;2022-07-23T01:58:37;18.50;99.90
20534;DHT22;12929;56.822;26.056;2022-07-23T02:01:05;18.60;99.90
20534;DHT22;12929;56.822;26.056;2022-07-23T02:03:33;18.60;99.90
20534;DHT22;12929;56.822;26.056;2022-07-23T02:06:01;18.60;99.90
20534;DHT22;12929;56.822;26.056;2022-07-23T02:08:29;18.60;99.90
20534;DHT22;12929;56.822;26.056;2022-07-23T02:10:56;18.50;99.90
20534;DHT22;12929;56.822;26.056;2022-07-23T02:13:27;18.50;99.90
20534;DHT22;12929;56.822;26.056;2022-07-23T02:16:00;18.50;99.90
20534;DHT22;12929;56.822;26.056;2022-07-23T02:18:29;18.50;99.90
20534;DHT22;12929;56.822;26.056;2022-07-23T02:20:56;18.50;99.90
20534;DHT22;12929;56.822;26.056;2022-07-23T02:23:24;18.60;99.90
20534;DHT22;12929;56.822;26.056;2022-07-23T02:25:53;18.60;99.90
20534;DHT22;12929;56.822;26.056;2022-07-23T02:28:20;18.60;99.90
20534;DHT22;12929;56.822;26.056;2022-07-23T02:30:48;18.50;99.90
20534;DHT22;12929;56.822;26.056;2022-07-23T02:33:16;18.50;99.90
20534;DHT22;12929;56.822;26.056;2022-07-23T02:35:45;18.50;99.90
20534;DHT22;12929;56.822;26.056;2022-07-23T02:38:13;18.50;99.90
20534;DHT22;12929;56.822;26.056;2022-07-23T02:40:41;18.70;99.90
20534;DHT22;12929;56.822;26.056;2022-07-23T02:43:08;18.60;99.90
20534;DHT22;12929;56.822;26.056;2022-07-23T02:45:36;18.60;99.90
20534;DHT22;12929;56.822;26.056;2022-07-23T02:48:04;18.60;99.90
20534;DHT22;12929;56.822;26.056;2022-07-23T02:50:32;18.50;99.90
20534;DHT22;12929;56.822;26.056;2022-07-23T02:53:00;18.50;99.90
20534;DHT22;12929;56.822;26.056;2022-07-23T02:55:28;18.50;99.90
20534;DHT22;12929;56.822;26.056;2022-07-23T02:57:58;18.50;99.90
20534;DHT22;12929;56.822;26.056;2022-07-23T03:00:27;18.50;99.90
20534;DHT22;12929;56.822;26.056;2022-07-23T03:02:55;18.50;99.90
20534;DHT22;12929;56.822;26.056;2022-07-23T03:05:23;18.50;99.90
20534;DHT22;12929;56.822;26.056;2022-07-23T03:07:50;18.60;99.90
20534;DHT22;12929;56.822;26.056;2022-07-23T03:10:19;18.60;99.90
20534;DHT22;12929;56.822;26.056;2022-07-23T03:12:47;18.60;99.90
20534;DHT22;12929;56.822;26.056;2022-07-23T03:15:15;18.50;99.90
20534;DHT22;12929;56.822;26.056;2022-07-23T03:17:43;18.50;99.90
20534;DHT22;12929;56.822;26.056;2022-07-23T03:20:11;18.50;99.90
20534;DHT22;12929;56.822;26.056;2022-07-23T03:22:38;18.50;99.90
20534;DHT22;12929;56.822;26.056;2022-07-23T03:25:07;18.50;99.90
20534;DHT22;12929;56.822;26.056;2022-07-23T03:27:35;18.50;99.90
20534;DHT22;12929;56.822;26.056;2022-07-23T03:30:03;18.60;99.90
20534;DHT22;12929;56.822;26.056;2022-07-23T03:32:33;18.60;99.90
20534;DHT22;12929;56.822;26.056;2022-07-23T03:35:01;18.60;99.90
20534;DHT22;12929;56.822;26.056;2022-07-23T03:37:29;18.60;99.90
20534;DHT22;12929;56.822;26.056;2022-07-23T03:39:58;18.60;99.90
20534;DHT22;12929;56.822;26.056;2022-07-23T03:42:27;18.70;99.90
20534;DHT22;12929;56.822;26.056;2022-07-23T03:44:55;18.70;99.90
20534;DHT22;12929;56.822;26.056;2022-07-23T03:47:22;18.70;99.90
20534;DHT22;12929;56.822;26.056;2022-07-23T03:49:50;18.70;99.90
20534;DHT22;12929;56.822;26.056;2022-07-23T03:52:18;18.70;99.90
20534;DHT22;12929;56.822;26.056;2022-07-23T03:54:45;18.70;99.90
20534;DHT22;12929;56.822;26.056;2022-07-23T03:57:13;18.60;99.90
20534;DHT22;12929;56.822;26.056;2022-07-23T03:59:41;18.60;99.90
20534;DHT22;12929;56.822;26.056;2022-07-23T04:02:08;18.60;99.90
20534;DHT22;12929;56.822;26.056;2022-07-23T04:04:36;18.60;99.90
20534;DHT22;12929;56.822;26.056;2022-07-23T04:07:05;18.60;99.90
20534;DHT22;12929;56.822;26.056;2022-07-23T04:09:34;18.60;99.90
20534;DHT22;12929;56.822;26.056;2022-07-23T04:12:01;18.70;99.90
20534;DHT22;12929;56.822;26.056;2022-07-23T04:14:29;18.80;99.90
20534;DHT22;12929;56.822;26.056;2022-07-23T04:16:57;18.80;99.90
20534;DHT22;12929;56.822;26.056;2022-07-23T04:19:26;18.90;99.90
20534;DHT22;12929;56.822;26.056;2022-07-23T04:22:04;18.90;99.90
20534;DHT22;12929;56.822;26.056;2022-07-23T04:24:34;18.90;99.90
20534;DHT22;12929;56.822;26.056;2022-07-23T04:27:02;18.90;99.90
20534;DHT22;12929;56.822;26.056;2022-07-23T04:29:31;19.00;99.90
20534;DHT22;12929;56.822;26.056;2022-07-23T04:31:59;19.00;99.90
20534;DHT22;12929;56.822;26.056;2022-07-23T04:34:26;19.00;99.90
20534;DHT22;12929;56.822;26.056;2022-07-23T04:36:55;19.10;99.90
20534;DHT22;12929;56.822;26.056;2022-07-23T04:39:23;19.10;99.90
20534;DHT22;12929;56.822;26.056;2022-07-23T04:41:51;19.20;99.90
20534;DHT22;12929;56.822;26.056;2022-07-23T04:44:19;19.20;99.90
20534;DHT22;12929;56.822;26.056;2022-07-23T04:46:47;19.20;99.90
20534;DHT22;12929;56.822;26.056;2022-07-23T04:49:17;19.30;99.90
20534;DHT22;12929;56.822;26.056;2022-07-23T04:51:46;19.40;99.90
20534;DHT22;12929;56.822;26.056;2022-07-23T04:54:14;19.50;99.90
20534;DHT22;12929;56.822;26.056;2022-07-23T04:56:43;19.60;99.90
20534;DHT22;12929;56.822;26.056;2022-07-23T04:59:10;19.70;99.90
20534;DHT22;12929;56.822;26.056;2022-07-23T05:01:39;19.80;99.90
20534;DHT22;12929;56.822;26.056;2022-07-23T05:04:10;19.80;99.90
20534;DHT22;12929;56.822;26.056;2022-07-23T05:06:39;20.00;99.90
20534;DHT22;12929;56.822;26.056;2022-07-23T05:09:06;20.00;99.90
20534;DHT22;12929;56.822;26.056;2022-07-23T05:11:34;20.00;99.90
20534;DHT22;12929;56.822;26.056;2022-07-23T05:14:02;20.00;99.90
20534;DHT22;12929;56.822;26.056;2022-07-23T05:16:29;20.00;99.90
20534;DHT22;12929;56.822;26.056;2022-07-23T05:19:02;20.10;99.90
20534;DHT22;12929;56.822;26.056;2022-07-23T05:21:33;20.10;99.90
20534;DHT22;12929;56.822;26.056;2022-07-23T05:24:01;20.10;99.90
20534;DHT22;12929;56.822;26.056;2022-07-23T05:26:29;20.10;99.90
20534;DHT22;12929;56.822;26.056;2022-07-23T05:28:57;20.10;99.90
20534;DHT22;12929;56.822;26.056;2022-07-23T05:31:25;20.20;99.90
20534;DHT22;12929;56.822;26.056;2022-07-23T05:33:52;20.20;99.90
20534;DHT22;12929;56.822;26.056;2022-07-23T05:36:21;20.20;99.90
20534;DHT22;12929;56.822;26.056;2022-07-23T05:38:52;20.30;99.90
20534;DHT22;12929;56.822;26.056;2022-07-23T05:41:20;20.30;99.90
20534;DHT22;12929;56.822;26.056;2022-07-23T05:43:48;20.40;99.90
20534;DHT22;12929;56.822;26.056;2022-07-23T05:46:15;20.40;99.90
20534;DHT22;12929;56.822;26.056;2022-07-23T05:48:48;20.40;99.90
20534;DHT22;12929;56.822;26.056;2022-07-23T05:51:43;20.40;99.90
20534;DHT22;12929;56.822;26.056;2022-07-23T05:54:15;20.40;99.90
20534;DHT22;12929;56.822;26.056;2022-07-23T05:56:43;20.30;99.90
20534;DHT22;12929;56.822;26.056;2022-07-23T05:59:11;20.30;99.90
20534;DHT22;12929;56.822;26.056;2022-07-23T06:01:40;20.30;99.90
20534;DHT22;12929;56.822;26.056;2022-07-23T06:04:10;20.10;99.90
20534;DHT22;12929;56.822;26.056;2022-07-23T06:06:44;20.10;99.90
20534;DHT22;12929;56.822;26.056;2022-07-23T06:09:12;20.10;99.90
20534;DHT22;12929;56.822;26.056;2022-07-23T06:11:41;20.10;99.90
20534;DHT22;12929;56.822;26.056;2022-07-23T06:14:09;20.20;99.90
20534;DHT22;12929;56.822;26.056;2022-07-23T06:16:57;20.20;99.90
20534;DHT22;12929;56.822;26.056;2022-07-23T06:19:26;20.20;99.90
20534;DHT22;12929;56.822;26.056;2022-07-23T06:21:53;20.20;99.90
20534;DHT22;12929;56.822;26.056;2022-07-23T06:24:21;20.20;99.90
20534;DHT22;12929;56.822;26.056;2022-07-23T06:26:50;20.20;99.90
20534;DHT22;12929;56.822;26.056;2022-07-23T06:29:18;20.20;99.90
20534;DHT22;12929;56.822;26.056;2022-07-23T06:31:46;20.20;99.90
20534;DHT22;12929;56.822;26.056;2022-07-23T06:34:14;20.20;99.90
20534;DHT22;12929;56.822;26.056;2022-07-23T06:36:43;20.20;99.90
20534;DHT22;12929;56.822;26.056;2022-07-23T06:39:12;20.20;99.90
20534;DHT22;12929;56.822;26.056;2022-07-23T06:41:45;20.10;99.90
20534;DHT22;12929;56.822;26.056;2022-07-23T06:44:18;20.10;99.90
20534;DHT22;12929;56.822;26.056;2022-07-23T06:46:48;20.10;99.90
20534;DHT22;12929;56.822;26.056;2022-07-23T06:49:16;20.00;99.90
20534;DHT22;12929;56.822;26.056;2022-07-23T06:51:44;20.10;99.90
20534;DHT22;12929;56.822;26.056;2022-07-23T06:54:12;20.10;99.90
20534;DHT22;12929;56.822;26.056;2022-07-23T06:56:40;20.10;99.90
20534;DHT22;12929;56.822;26.056;2022-07-23T06:59:10;20.00;99.90
20534;DHT22;12929;56.822;26.056;2022-07-23T07:01:38;20.00;99.90
20534;DHT22;12929;56.822;26.056;2022-07-23T07:04:05;20.10;99.90
20534;DHT22;12929;56.822;26.056;2022-07-23T07:06:34;20.10;99.90
20534;DHT22;12929;56.822;26.056;2022-07-23T07:09:02;20.10;99.90
20534;DHT22;12929;56.822;26.056;2022-07-23T07:11:30;20.10;99.90
20534;DHT22;12929;56.822;26.056;2022-07-23T07:13:58;20.10;99.90
20534;DHT22;12929;56.822;26.056;2022-07-23T07:16:26;20.20;99.90
20534;DHT22;12929;56.822;26.056;2022-07-23T07:18:59;20.20;99.90
20534;DHT22;12929;56.822;26.056;2022-07-23T07:21:27;20.20;99.90
20534;DHT22;12929;56.822;26.056;2022-07-23T07:23:56;20.10;99.90
20534;DHT22;12929;56.822;26.056;2022-07-23T07:26:24;20.10;99.90
20534;DHT22;12929;56.822;26.056;2022-07-23T07:28:51;20.00;99.90
20534;DHT22;12929;56.822;26.056;2022-07-23T07:31:19;20.10;99.90
20534;DHT22;12929;56.822;26.056;2022-07-23T07:33:46;20.10;99.90
20534;DHT22;12929;56.822;26.056;2022-07-23T07:36:15;20.00;99.90
20534;DHT22;12929;56.822;26.056;2022-07-23T07:38:45;20.10;99.90
20534;DHT22;12929;56.822;26.056;2022-07-23T07:41:13;20.20;99.90
20534;DHT22;12929;56.822;26.056;2022-07-23T07:43:41;20.10;99.90
20534;DHT22;12929;56.822;26.056;2022-07-23T07:46:08;20.20;99.90
20534;DHT22;12929;56.822;26.056;2022-07-23T07:48:37;20.20;99.90
20534;DHT22;12929;56.822;26.056;2022-07-23T07:51:05;20.30;99.90
20534;DHT22;12929;56.822;26.056;2022-07-23T07:53:33;20.40;99.90
20534;DHT22;12929;56.822;26.056;2022-07-23T07:56:01;20.50;99.90
20534;DHT22;12929;56.822;26.056;2022-07-23T07:58:29;20.50;99.90
20534;DHT22;12929;56.822;26.056;2022-07-23T08:00:56;20.60;99.90
20534;DHT22;12929;56.822;26.056;2022-07-23T08:03:24;20.60;99.90
20534;DHT22;12929;56.822;26.056;2022-07-23T08:05:52;20.60;99.90
20534;DHT22;12929;56.822;26.056;2022-07-23T08:08:20;20.60;99.90
20534;DHT22;12929;56.822;26.056;2022-07-23T08:10:48;20.60;99.90
20534;DHT22;12929;56.822;26.056;2022-07-23T08:13:17;20.70;99.90
20534;DHT22;12929;56.822;26.056;2022-07-23T08:15:45;20.80;99.90
20534;DHT22;12929;56.822;26.056;2022-07-23T08:18:14;20.80;99.90
20534;DHT22;12929;56.822;26.056;2022-07-23T08:20:42;20.90;99.90
20534;DHT22;12929;56.822;26.056;2022-07-23T08:23:10;20.90;99.90
20534;DHT22;12929;56.822;26.056;2022-07-23T08:25:41;21.00;99.90
20534;DHT22;12929;56.822;26.056;2022-07-23T08:28:11;21.10;99.90
20534;DHT22;12929;56.822;26.056;2022-07-23T08:30:43;21.10;99.90
20534;DHT22;12929;56.822;26.056;2022-07-23T08:33:17;21.20;99.90
20534;DHT22;12929;56.822;26.056;2022-07-23T08:36:01;21.30;99.90
20534;DHT22;12929;56.822;26.056;2022-07-23T08:38:32;21.30;99.90
20534;DHT22;12929;56.822;26.056;2022-07-23T08:41:00;21.20;99.90
20534;DHT22;12929;56.822;26.056;2022-07-23T08:43:30;21.20;99.90
20534;DHT22;12929;56.822;26.056;2022-07-23T08:46:00;21.30;99.90
20534;DHT22;12929;56.822;26.056;2022-07-23T08:48:33;21.40;99.90
20534;DHT22;12929;56.822;26.056;2022-07-23T08:51:04;21.40;99.90
20534;DHT22;12929;56.822;26.056;2022-07-23T08:53:35;21.50;99.90
20534;DHT22;12929;56.822;26.056;2022-07-23T08:56:05;21.60;99.90
20534;DHT22;12929;56.822;26.056;2022-07-23T08:58:36;21.60;99.90
20534;DHT22;12929;56.822;26.056;2022-07-23T09:01:04;21.70;99.90
20534;DHT22;12929;56.822;26.056;2022-07-23T09:03:35;21.70;99.90
20534;DHT22;12929;56.822;26.056;2022-07-23T09:06:04;21.80;99.90
20534;DHT22;12929;56.822;26.056;2022-07-23T09:08:40;21.90;99.90
20534;DHT22;12929;56.822;26.056;2022-07-23T09:11:12;22.00;99.90
20534;DHT22;12929;56.822;26.056;2022-07-23T09:13:54;22.00;99.90
20534;DHT22;12929;56.822;26.056;2022-07-23T09:16:27;22.20;99.90
20534;DHT22;12929;56.822;26.056;2022-07-23T09:18:59;22.20;99.90
20534;DHT22;12929;56.822;26.056;2022-07-23T09:21:31;22.10;99.90
20534;DHT22;12929;56.822;26.056;2022-07-23T09:24:04;22.20;99.90
20534;DHT22;12929;56.822;26.056;2022-07-23T09:29:18;22.10;99.90
20534;DHT22;12929;56.822;26.056;2022-07-23T09:34:22;22.10;99.90
20534;DHT22;12929;56.822;26.056;2022-07-23T09:36:57;22.10;99.90
20534;DHT22;12929;56.822;26.056;2022-07-23T09:39:30;22.00;99.90
20534;DHT22;12929;56.822;26.056;2022-07-23T09:42:23;22.00;99.90
20534;DHT22;12929;56.822;26.056;2022-07-23T09:44:55;21.90;99.90
20534;DHT22;12929;56.822;26.056;2022-07-23T09:47:25;21.90;99.90
20534;DHT22;12929;56.822;26.056;2022-07-23T09:52:34;22.10;99.90
20534;DHT22;12929;56.822;26.056;2022-07-23T09:55:05;22.00;99.90
20534;DHT22;12929;56.822;26.056;2022-07-23T09:57:33;22.10;99.90
20534;DHT22;12929;56.822;26.056;2022-07-23T10:00:04;22.30;99.90
20534;DHT22;12929;56.822;26.056;2022-07-23T10:02:33;22.60;99.90
20534;DHT22;12929;56.822;26.056;2022-07-23T10:05:20;22.80;99.90
20534;DHT22;12929;56.822;26.056;2022-07-23T10:08:16;22.80;99.90
20534;DHT22;12929;56.822;26.056;2022-07-23T10:10:54;22.70;99.90
20534;DHT22;12929;56.822;26.056;2022-07-23T10:13:45;22.60;99.90
20534;DHT22;12929;56.822;26.056;2022-07-23T10:16:19;22.40;99.90
20534;DHT22;12929;56.822;26.056;2022-07-23T10:18:53;22.30;99.90
20534;DHT22;12929;56.822;26.056;2022-07-23T10:21:33;22.20;99.90
20534;DHT22;12929;56.822;26.056;2022-07-23T10:33:32;22.50;99.90
20534;DHT22;12929;56.822;26.056;2022-07-23T10:36:18;22.60;99.90
20534;DHT22;12929;56.822;26.056;2022-07-23T10:38:54;22.50;99.90
20534;DHT22;12929;56.822;26.056;2022-07-23T10:41:37;22.50;99.90
20534;DHT22;12929;56.822;26.056;2022-07-23T10:44:08;22.70;99.90
20534;DHT22;12929;56.822;26.056;2022-07-23T10:46:53;22.70;99.90
20534;DHT22;12929;56.822;26.056;2022-07-23T10:49:41;22.70;99.90
20534;DHT22;12929;56.822;26.056;2022-07-23T10:54:52;23.00;99.90
20534;DHT22;12929;56.822;26.056;2022-07-23T10:57:27;23.00;99.90
20534;DHT22;12929;56.822;26.056;2022-07-23T11:02:33;22.80;99.90
20534;DHT22;12929;56.822;26.056;2022-07-23T11:05:07;22.80;99.90
20534;DHT22;12929;56.822;26.056;2022-07-23T11:08:22;22.80;99.90
20534;DHT22;12929;56.822;26.056;2022-07-23T11:10:42;23.10;99.90
20534;DHT22;12929;56.822;26.056;2022-07-23T11:24:09;23.90;99.90
20534;DHT22;12929;56.822;26.056;2022-07-23T11:26:41;24.00;99.90
20534;DHT22;12929;56.822;26.056;2022-07-23T11:31:58;23.90;99.90
20534;DHT22;12929;56.822;26.056;2022-07-23T11:34:39;23.80;99.90
20534;DHT22;12929;56.822;26.056;2022-07-23T11:37:11;23.90;99.90
20534;DHT22;12929;56.822;26.056;2022-07-23T11:39:39;23.90;99.90
20534;DHT22;12929;56.822;26.056;2022-07-23T11:42:08;24.00;99.90
20534;DHT22;12929;56.822;26.056;2022-07-23T11:44:38;24.00;99.90
20534;DHT22;12929;56.822;26.056;2022-07-23T11:47:08;24.00;99.90
20534;DHT22;12929;56.822;26.056;2022-07-23T11:49:38;24.10;99.90
20534;DHT22;12929;56.822;26.056;2022-07-23T11:52:14;24.10;99.90
20534;DHT22;12929;56.822;26.056;2022-07-23T11:57:29;24.10;99.90
20534;DHT22;12929;56.822;26.056;2022-07-23T12:00:10;24.10;99.90
20534;DHT22;12929;56.822;26.056;2022-07-23T12:02:44;24.10;99.90
20534;DHT22;12929;56.822;26.056;2022-07-23T12:05:15;24.10;99.90
20534;DHT22;12929;56.822;26.056;2022-07-23T12:07:44;23.90;99.90
20534;DHT22;12929;56.822;26.056;2022-07-23T12:10:22;23.70;99.90
20534;DHT22;12929;56.822;26.056;2022-07-23T12:15:30;23.50;99.90
20534;DHT22;12929;56.822;26.056;2022-07-23T12:18:01;23.20;99.90
20534;DHT22;12929;56.822;26.056;2022-07-23T12:20:31;23.20;99.90
20534;DHT22;12929;56.822;26.056;2022-07-23T12:23:03;23.20;99.90
20534;DHT22;12929;56.822;26.056;2022-07-23T12:25:34;23.10;99.90
20534;DHT22;12929;56.822;26.056;2022-07-23T12:28:09;23.00;99.90
20534;DHT22;12929;56.822;26.056;2022-07-23T12:30:47;23.00;99.90
20534;DHT22;12929;56.822;26.056;2022-07-23T12:33:30;23.00;99.90
20534;DHT22;12929;56.822;26.056;2022-07-23T12:36:01;23.20;99.90
20534;DHT22;12929;56.822;26.056;2022-07-23T12:38:40;23.20;99.90
20534;DHT22;12929;56.822;26.056;2022-07-23T12:41:08;23.30;99.90
20534;DHT22;12929;56.822;26.056;2022-07-23T12:43:38;23.30;99.90
20534;DHT22;12929;56.822;26.056;2022-07-23T12:46:13;23.60;99.90
20534;DHT22;12929;56.822;26.056;2022-07-23T12:51:27;23.50;99.90
20534;DHT22;12929;56.822;26.056;2022-07-23T12:54:04;23.50;99.90
20534;DHT22;12929;56.822;26.056;2022-07-23T12:56:35;23.70;99.90
20534;DHT22;12929;56.822;26.056;2022-07-23T13:01:38;24.40;99.90
20534;DHT22;12929;56.822;26.056;2022-07-23T13:04:14;24.60;99.90
20534;DHT22;12929;56.822;26.056;2022-07-23T13:06:53;24.50;99.90
20534;DHT22;12929;56.822;26.056;2022-07-23T13:09:27;24.40;99.90
20534;DHT22;12929;56.822;26.056;2022-07-23T13:12:00;24.50;99.90
20534;DHT22;12929;56.822;26.056;2022-07-23T13:14:28;24.70;99.90
20534;DHT22;12929;56.822;26.056;2022-07-23T13:16:56;24.80;99.90
20534;DHT22;12929;56.822;26.056;2022-07-23T13:19:25;24.80;99.90
20534;DHT22;12929;56.822;26.056;2022-07-23T13:21:57;24.60;99.90
20534;DHT22;12929;56.822;26.056;2022-07-23T13:24:25;24.30;99.90
20534;DHT22;12929;56.822;26.056;2022-07-23T13:26:53;24.20;99.90
20534;DHT22;12929;56.822;26.056;2022-07-23T13:29:21;24.20;99.90
20534;DHT22;12929;56.822;26.056;2022-07-23T13:31:49;24.10;99.90
20534;DHT22;12929;56.822;26.056;2022-07-23T13:34:17;24.10;99.90
20534;DHT22;12929;56.822;26.056;2022-07-23T13:36:46;24.00;99.90
20534;DHT22;12929;56.822;26.056;2022-07-23T13:39:14;23.90;99.90
20534;DHT22;12929;56.822;26.056;2022-07-23T13:41:41;23.80;99.90
20534;DHT22;12929;56.822;26.056;2022-07-23T13:44:17;23.70;99.90
20534;DHT22;12929;56.822;26.056;2022-07-23T13:46:48;23.70;99.90
20534;DHT22;12929;56.822;26.056;2022-07-23T13:49:16;23.90;99.90
20534;DHT22;12929;56.822;26.056;2022-07-23T13:51:44;24.00;99.90
20534;DHT22;12929;56.822;26.056;2022-07-23T13:54:11;24.00;99.90
20534;DHT22;12929;56.822;26.056;2022-07-23T13:56:40;24.10;99.90
20534;DHT22;12929;56.822;26.056;2022-07-23T13:59:08;24.10;99.90
20534;DHT22;12929;56.822;26.056;2022-07-23T14:01:36;24.40;99.90
20534;DHT22;12929;56.822;26.056;2022-07-23T14:04:24;24.40;99.90
20534;DHT22;12929;56.822;26.056;2022-07-23T14:06:52;24.30;99.90
20534;DHT22;12929;56.822;26.056;2022-07-23T14:09:21;24.50;99.90
20534;DHT22;12929;56.822;26.056;2022-07-23T14:11:52;24.70;99.90
20534;DHT22;12929;56.822;26.056;2022-07-23T14:14:19;24.90;99.90
20534;DHT22;12929;56.822;26.056;2022-07-23T14:16:48;25.00;99.90
20534;DHT22;12929;56.822;26.056;2022-07-23T14:19:15;25.10;99.90
20534;DHT22;12929;56.822;26.056;2022-07-23T14:21:45;25.00;99.90
20534;DHT22;12929;56.822;26.056;2022-07-23T14:24:12;25.00;99.90
20534;DHT22;12929;56.822;26.056;2022-07-23T14:26:40;25.10;99.90
20534;DHT22;12929;56.822;26.056;2022-07-23T14:29:09;25.20;99.90
20534;DHT22;12929;56.822;26.056;2022-07-23T14:31:38;25.20;99.90
20534;DHT22;12929;56.822;26.056;2022-07-23T14:34:06;25.20;99.90
20534;DHT22;12929;56.822;26.056;2022-07-23T14:36:34;25.20;99.90
20534;DHT22;12929;56.822;26.056;2022-07-23T14:39:05;25.20;99.90
20534;DHT22;12929;56.822;26.056;2022-07-23T14:41:37;25.20;99.90
20534;DHT22;12929;56.822;26.056;2022-07-23T14:44:05;24.80;99.90
20534;DHT22;12929;56.822;26.056;2022-07-23T14:46:33;24.40;99.90
20534;DHT22;12929;56.822;26.056;2022-07-23T14:49:01;24.10;99.90
20534;DHT22;12929;56.822;26.056;2022-07-23T14:51:30;24.00;99.90
20534;DHT22;12929;56.822;26.056;2022-07-23T14:53:59;24.10;99.90
20534;DHT22;12929;56.822;26.056;2022-07-23T14:56:27;24.20;99.90
20534;DHT22;12929;56.822;26.056;2022-07-23T14:58:54;24.40;99.90
20534;DHT22;12929;56.822;26.056;2022-07-23T15:01:23;24.60;99.90
20534;DHT22;12929;56.822;26.056;2022-07-23T15:03:53;24.70;99.90
20534;DHT22;12929;56.822;26.056;2022-07-23T15:06:26;24.90;99.90
20534;DHT22;12929;56.822;26.056;2022-07-23T15:08:54;25.00;99.90
20534;DHT22;12929;56.822;26.056;2022-07-23T15:11:23;25.00;99.90
20534;DHT22;12929;56.822;26.056;2022-07-23T15:13:51;24.60;99.90
20534;DHT22;12929;56.822;26.056;2022-07-23T15:16:19;24.50;99.90
20534;DHT22;12929;56.822;26.056;2022-07-23T15:18:50;24.60;99.90
20534;DHT22;12929;56.822;26.056;2022-07-23T15:21:18;24.70;99.90
20534;DHT22;12929;56.822;26.056;2022-07-23T15:23:46;24.90;99.90
20534;DHT22;12929;56.822;26.056;2022-07-23T15:26:15;24.90;99.90
20534;DHT22;12929;56.822;26.056;2022-07-23T15:28:43;24.90;99.90
20534;DHT22;12929;56.822;26.056;2022-07-23T15:31:10;24.80;99.90
20534;DHT22;12929;56.822;26.056;2022-07-23T15:33:39;24.80;99.90
20534;DHT22;12929;56.822;26.056;2022-07-23T15:36:07;24.50;99.90
20534;DHT22;12929;56.822;26.056;2022-07-23T15:38:36;24.50;99.90
20534;DHT22;12929;56.822;26.056;2022-07-23T15:41:04;24.50;99.90
20534;DHT22;12929;56.822;26.056;2022-07-23T15:43:31;24.50;99.90
20534;DHT22;12929;56.822;26.056;2022-07-23T15:45:59;24.60;99.90
20534;DHT22;12929;56.822;26.056;2022-07-23T15:48:27;24.60;99.90
20534;DHT22;12929;56.822;26.056;2022-07-23T15:50:56;24.60;99.90
20534;DHT22;12929;56.822;26.056;2022-07-23T15:53:26;24.60;99.90
20534;DHT22;12929;56.822;26.056;2022-07-23T15:56:14;24.50;99.90
20534;DHT22;12929;56.822;26.056;2022-07-23T15:58:43;24.60;99.90
20534;DHT22;12929;56.822;26.056;2022-07-23T16:01:12;24.60;99.90
20534;DHT22;12929;56.822;26.056;2022-07-23T16:03:40;24.60;99.90
20534;DHT22;12929;56.822;26.056;2022-07-23T16:06:08;24.60;99.90
20534;DHT22;12929;56.822;26.056;2022-07-23T16:08:43;24.50;99.90
20534;DHT22;12929;56.822;26.056;2022-07-23T16:11:11;24.40;99.90
20534;DHT22;12929;56.822;26.056;2022-07-23T16:13:40;24.40;99.90
20534;DHT22;12929;56.822;26.056;2022-07-23T16:16:08;24.20;99.90
20534;DHT22;12929;56.822;26.056;2022-07-23T16:18:37;24.10;99.90
20534;DHT22;12929;56.822;26.056;2022-07-23T16:21:05;23.90;99.90